createdAt,value
2023-02-12T00:01:12.827Z,58.04
2023-02-12T00:03:57.806Z,58.30
2023-02-12T00:06:43.002Z,58.90
2023-02-12T00:09:27.843Z,58.77
2023-02-12T00:12:12.879Z,58.84
2023-02-12T00:14:58.320Z,58.54
2023-02-12T00:17:43.117Z,58.30
2023-02-12T00:20:28.007Z,57.89
2023-02-12T00:23:13.006Z,58.33
2023-02-12T00:25:57.908Z,57.92
2023-02-12T00:28:43.083Z,57.60
2023-02-12T00:31:28.238Z,57.11
2023-02-12T00:34:13.466Z,58.94
2023-02-12T00:36:58.266Z,58.90
2023-02-12T00:39:43.223Z,58.21
2023-02-12T00:42:28.153Z,58.10
2023-02-12T00:45:13.204Z,58.56
2023-02-12T00:47:58.016Z,59.12
2023-02-12T00:50:42.834Z,58.37
2023-02-12T00:53:27.746Z,57.87
2023-02-12T00:56:12.585Z,58.03
2023-02-12T00:58:57.356Z,58.61
2023-02-12T01:01:42.253Z,56.99
2023-02-12T01:04:27.691Z,57.20
2023-02-12T01:07:12.646Z,56.24
2023-02-12T01:09:57.703Z,56.97
2023-02-12T01:12:42.561Z,57.54
2023-02-12T01:15:27.463Z,56.95
2023-02-12T01:18:12.152Z,57.08
2023-02-12T01:20:57.031Z,56.16
2023-02-12T01:23:41.870Z,58.21
2023-02-12T01:26:26.770Z,57.12
2023-02-12T01:29:11.672Z,56.27
2023-02-12T01:31:56.604Z,56.91
2023-02-12T01:34:42.015Z,56.91
2023-02-12T01:37:26.736Z,56.29
2023-02-12T01:40:11.616Z,56.44
2023-02-12T01:42:56.446Z,56.20
2023-02-12T01:45:41.388Z,57.33
2023-02-12T01:48:26.277Z,56.90
2023-02-12T01:51:11.193Z,57.64
2023-02-12T01:53:56.096Z,57.11
2023-02-12T01:56:41.044Z,58.18
2023-02-12T01:59:25.895Z,57.19
2023-02-12T02:02:10.653Z,57.52
2023-02-12T02:04:55.545Z,58.56
2023-02-12T02:07:40.275Z,58.63
2023-02-12T02:10:25.215Z,58.33
2023-02-12T02:13:10.121Z,57.69
2023-02-12T02:15:55.375Z,58.93
2023-02-12T02:18:40.323Z,59.37
2023-02-12T02:21:25.122Z,59.44
2023-02-12T02:24:10.194Z,59.84
2023-02-12T02:26:55.047Z,59.94
2023-02-12T02:29:40.005Z,58.95
2023-02-12T02:32:24.920Z,59.07
2023-02-12T02:35:09.952Z,58.70
2023-02-12T02:37:54.941Z,59.25
2023-02-12T02:40:39.716Z,58.25
2023-02-12T02:43:24.746Z,59.21
2023-02-12T02:46:09.600Z,59.91
2023-02-12T02:48:54.529Z,59.88
2023-02-12T02:51:39.363Z,58.44
2023-02-12T02:54:24.230Z,58.39
2023-02-12T02:57:09.030Z,58.66
2023-02-12T02:59:53.916Z,58.93
2023-02-12T03:02:38.798Z,58.65
2023-02-12T03:05:23.711Z,59.12
2023-02-12T03:08:08.405Z,58.41
2023-02-12T03:10:53.150Z,58.41
2023-02-12T03:13:38.180Z,58.73
2023-02-12T03:16:22.976Z,58.48
2023-02-12T03:19:07.967Z,58.99
2023-02-12T03:21:52.855Z,58.58
2023-02-12T03:24:37.847Z,58.78
2023-02-12T03:27:22.802Z,59.28
2023-02-12T03:30:07.651Z,58.74
2023-02-12T03:32:52.629Z,58.72
2023-02-12T03:35:37.407Z,58.59
2023-02-12T03:38:22.387Z,58.70
2023-02-12T03:41:07.117Z,58.69
2023-02-12T03:43:51.901Z,58.78
2023-02-12T03:46:36.753Z,58.58
2023-02-12T03:49:21.630Z,58.25
2023-02-12T03:52:06.526Z,57.75
2023-02-12T03:54:51.499Z,56.44
2023-02-12T03:57:36.441Z,57.03
2023-02-12T04:00:21.268Z,57.15
2023-02-12T04:03:06.317Z,57.95
2023-02-12T04:05:51.268Z,57.93
2023-02-12T04:08:36.302Z,58.83
2023-02-12T04:11:21.113Z,58.24
2023-02-12T04:14:05.882Z,59.01
2023-02-12T04:16:50.788Z,58.60
2023-02-12T04:19:35.584Z,58.34
2023-02-12T04:22:20.401Z,60.63
2023-02-12T04:25:05.244Z,61.50
2023-02-12T04:27:50.200Z,60.44
2023-02-12T04:30:35.049Z,60.21
2023-02-12T04:33:19.936Z,60.26
2023-02-12T04:36:04.771Z,60.69
2023-02-12T04:38:49.596Z,60.97
2023-02-12T04:41:34.440Z,60.86
2023-02-12T04:44:19.338Z,60.44
2023-02-12T04:47:04.280Z,61.74
2023-02-12T04:49:49.115Z,61.93
2023-02-12T04:52:34.058Z,62.13
2023-02-12T04:55:18.827Z,62.92
2023-02-12T04:58:03.630Z,62.83
2023-02-12T05:00:48.517Z,64.45
2023-02-12T05:03:33.679Z,63.79
2023-02-12T05:06:18.425Z,64.27
2023-02-12T05:09:03.410Z,62.99
2023-02-12T05:11:48.326Z,62.33
2023-02-12T05:14:33.317Z,62.00
2023-02-12T05:17:18.347Z,62.00
2023-02-12T05:20:03.234Z,61.97
2023-02-12T05:22:48.292Z,62.51
2023-02-12T05:25:33.220Z,62.12
2023-02-12T05:28:18.583Z,62.39
2023-02-12T05:31:03.623Z,62.86
2023-02-12T05:33:48.872Z,62.59
2023-02-12T05:36:33.872Z,62.23
2023-02-12T05:39:18.613Z,63.85
2023-02-12T05:42:03.620Z,63.21
2023-02-12T05:44:48.451Z,63.71
2023-02-12T05:47:33.387Z,62.58
2023-02-12T05:50:18.120Z,62.49
2023-02-12T05:53:03.174Z,61.86
2023-02-12T05:55:47.963Z,62.25
2023-02-12T05:58:32.852Z,62.14
2023-02-12T06:01:17.682Z,62.25
2023-02-12T06:04:02.648Z,62.49
2023-02-12T06:06:49.135Z,62.16
2023-02-12T06:09:34.175Z,62.25
2023-02-12T06:12:19.137Z,61.99
2023-02-12T06:15:03.968Z,61.49
2023-02-12T06:17:48.889Z,62.24
2023-02-12T06:20:33.849Z,62.18
2023-02-12T06:23:18.750Z,62.34
2023-02-12T06:26:03.648Z,61.94
2023-02-12T06:28:48.497Z,61.99
2023-02-12T06:31:33.420Z,61.92
2023-02-12T06:34:18.559Z,61.23
2023-02-12T06:37:03.589Z,62.13
2023-02-12T06:39:48.441Z,61.98
2023-02-12T06:42:33.305Z,63.69
2023-02-12T06:45:18.161Z,62.59
2023-02-12T06:48:02.994Z,62.02
2023-02-12T06:50:47.898Z,61.57
2023-02-12T06:53:32.718Z,63.45
2023-02-12T06:56:17.734Z,62.45
2023-02-12T06:59:02.620Z,62.35
2023-02-12T07:01:47.481Z,62.45
2023-02-12T07:04:32.382Z,63.24
2023-02-12T07:07:17.231Z,62.62
2023-02-12T07:10:02.282Z,62.48
2023-02-12T07:12:47.142Z,63.31
2023-02-12T07:15:32.189Z,62.37
2023-02-12T07:18:17.096Z,62.82
2023-02-12T07:21:01.944Z,62.84
2023-02-12T07:23:49.095Z,62.47
2023-02-12T07:26:35.583Z,61.29
2023-02-12T07:29:20.519Z,61.25
2023-02-12T07:32:05.466Z,61.42
2023-02-12T07:34:50.319Z,61.02
2023-02-12T07:37:35.152Z,60.12
2023-02-12T07:40:20.182Z,59.62
2023-02-12T07:43:05.142Z,60.99
2023-02-12T07:45:50.117Z,60.55
2023-02-12T07:48:34.990Z,60.50
2023-02-12T07:51:19.964Z,58.72
2023-02-12T07:54:05.083Z,58.79
2023-02-12T07:56:50.015Z,58.44
2023-02-12T07:59:34.921Z,57.46
2023-02-12T08:02:19.687Z,57.80
2023-02-12T08:05:04.693Z,58.37
2023-02-12T08:07:49.544Z,57.37
2023-02-12T08:10:34.452Z,59.08
2023-02-12T08:13:19.421Z,58.10
2023-02-12T08:16:04.322Z,58.24
2023-02-12T08:18:49.255Z,57.64
2023-02-12T08:21:34.108Z,57.33
2023-02-12T08:24:19.170Z,55.74
2023-02-12T08:27:03.976Z,55.49
2023-02-12T08:29:48.829Z,54.68
2023-02-12T08:32:33.806Z,54.23
2023-02-12T08:35:18.608Z,54.43
2023-02-12T08:38:03.576Z,54.11
2023-02-12T08:40:48.634Z,55.65
2023-02-12T08:43:33.477Z,55.56
2023-02-12T08:46:18.348Z,55.01
2023-02-12T08:49:03.275Z,55.33
2023-02-12T08:51:48.121Z,52.72
2023-02-12T08:54:33.031Z,52.05
2023-02-12T08:57:17.972Z,52.52
2023-02-12T09:00:02.734Z,53.02
2023-02-12T09:02:47.739Z,52.78
2023-02-12T09:05:32.488Z,51.93
2023-02-12T09:08:17.461Z,53.51
2023-02-12T09:11:02.306Z,52.66
2023-02-12T09:13:47.103Z,53.66
2023-02-12T09:16:31.884Z,52.97
2023-02-12T09:19:16.799Z,52.43
2023-02-12T09:22:01.606Z,52.16
2023-02-12T09:24:46.482Z,51.54
2023-02-12T09:27:31.536Z,51.41
2023-02-12T09:30:16.325Z,51.66
2023-02-12T09:33:01.386Z,53.06
2023-02-12T09:35:46.326Z,51.89
2023-02-12T09:38:31.262Z,52.18
2023-02-12T09:41:16.119Z,52.90
2023-02-12T09:44:01.029Z,52.78
2023-02-12T09:46:45.927Z,52.72
2023-02-12T09:49:31.349Z,52.46
2023-02-12T09:52:16.150Z,52.10
2023-02-12T09:55:00.900Z,50.36
2023-02-12T09:57:45.705Z,50.35
2023-02-12T10:00:30.615Z,49.80
2023-02-12T10:03:15.499Z,50.39
2023-02-12T10:06:00.274Z,50.71
2023-02-12T10:08:45.073Z,50.38
2023-02-12T10:11:29.993Z,49.65
2023-02-12T10:14:15.007Z,49.08
2023-02-12T10:16:59.991Z,50.47
2023-02-12T10:19:45.029Z,49.54
2023-02-12T10:22:29.966Z,49.26
2023-02-12T10:25:14.736Z,51.16
2023-02-12T10:27:59.709Z,51.90
2023-02-12T10:30:44.644Z,50.80
2023-02-12T10:33:29.568Z,51.22
2023-02-12T10:36:14.303Z,49.78
2023-02-12T10:38:59.140Z,48.71
2023-02-12T10:41:44.046Z,47.65
2023-02-12T10:44:28.889Z,49.35
2023-02-12T10:47:13.880Z,47.71
2023-02-12T10:49:58.580Z,47.48
2023-02-12T10:52:43.593Z,45.87
2023-02-12T10:55:28.520Z,49.43
2023-02-12T10:58:13.504Z,46.72
2023-02-12T11:00:58.407Z,46.13
2023-02-12T11:03:43.307Z,47.59
2023-02-12T11:06:28.240Z,45.51
2023-02-12T11:09:13.023Z,45.16
2023-02-12T11:11:57.830Z,46.09
2023-02-12T11:14:42.593Z,45.54
2023-02-12T11:17:27.569Z,43.23
2023-02-12T11:20:12.455Z,45.26
2023-02-12T11:22:57.566Z,44.00
2023-02-12T11:25:42.496Z,44.69
2023-02-12T11:28:27.399Z,45.10
2023-02-12T11:31:12.823Z,45.69
2023-02-12T11:33:57.645Z,45.69
2023-02-12T11:36:42.599Z,43.53
2023-02-12T11:39:27.446Z,42.67
2023-02-12T11:42:12.298Z,42.64
2023-02-12T11:44:57.126Z,40.75
2023-02-12T11:47:42.145Z,42.87
2023-02-12T11:50:27.014Z,42.41
2023-02-12T11:53:11.912Z,38.98
2023-02-12T11:55:56.766Z,40.02
2023-02-12T11:58:41.507Z,39.05
2023-02-12T12:01:26.479Z,40.31
2023-02-12T12:04:11.388Z,38.11
2023-02-12T12:06:56.328Z,39.11
2023-02-12T12:09:41.298Z,38.40
2023-02-12T12:12:26.219Z,39.12
2023-02-12T12:15:11.058Z,40.67
2023-02-12T12:17:56.188Z,40.63
2023-02-12T12:20:41.069Z,39.73
2023-02-12T12:23:26.002Z,38.18
2023-02-12T12:26:10.912Z,38.54
2023-02-12T12:28:55.766Z,39.04
2023-02-12T12:31:40.779Z,39.39
2023-02-12T12:34:25.672Z,37.47
2023-02-12T12:37:10.619Z,37.31
2023-02-12T12:39:55.522Z,38.05
2023-02-12T12:42:40.537Z,39.42
2023-02-12T12:45:25.409Z,38.50
2023-02-12T12:48:10.180Z,38.30
2023-02-12T12:50:55.246Z,38.62
2023-02-12T12:53:40.199Z,37.57
2023-02-12T12:56:25.583Z,38.53
2023-02-12T12:59:10.375Z,36.73
2023-02-12T13:01:55.313Z,35.49
2023-02-12T13:04:40.163Z,36.94
2023-02-12T13:07:24.967Z,35.61
2023-02-12T13:10:09.836Z,36.17
2023-02-12T13:12:54.695Z,36.47
2023-02-12T13:15:39.883Z,35.94
2023-02-12T13:18:24.595Z,34.51
2023-02-12T13:21:09.533Z,35.68
2023-02-12T13:23:54.435Z,36.46
2023-02-12T13:26:39.428Z,35.88
2023-02-12T13:29:24.191Z,35.00
2023-02-12T13:32:09.315Z,36.11
2023-02-12T13:34:54.722Z,35.57
2023-02-12T13:37:39.628Z,35.09
2023-02-12T13:40:24.484Z,35.35
2023-02-12T13:43:09.430Z,34.59
2023-02-12T13:45:54.668Z,33.71
2023-02-12T13:48:39.772Z,32.65
2023-02-12T13:51:24.632Z,34.62
2023-02-12T13:54:09.522Z,33.55
2023-02-12T13:56:54.337Z,34.83
2023-02-12T13:59:39.251Z,33.02
2023-02-12T14:02:24.149Z,33.49
2023-02-12T14:05:09.136Z,32.33
2023-02-12T14:07:53.941Z,30.92
2023-02-12T14:10:38.775Z,32.07
2023-02-12T14:13:23.513Z,32.92
2023-02-12T14:16:08.421Z,32.01
2023-02-12T14:18:53.210Z,30.98
2023-02-12T14:21:38.211Z,30.63
2023-02-12T14:24:23.164Z,31.25
2023-02-12T14:27:08.025Z,30.54
2023-02-12T14:29:52.874Z,28.12
2023-02-12T14:32:37.611Z,30.79
2023-02-12T14:35:22.563Z,31.78
2023-02-12T14:38:07.407Z,30.74
2023-02-12T14:40:52.305Z,29.75
2023-02-12T14:43:37.124Z,29.78
2023-02-12T14:46:22.171Z,29.97
2023-02-12T14:49:07.105Z,28.63
2023-02-12T14:51:51.996Z,28.87
2023-02-12T14:54:37.070Z,29.06
2023-02-12T14:57:21.863Z,28.21
2023-02-12T15:00:06.758Z,27.94
2023-02-12T15:02:51.557Z,29.40
2023-02-12T15:05:36.297Z,30.01
2023-02-12T15:08:21.218Z,30.25
2023-02-12T15:11:06.197Z,31.87
2023-02-12T15:13:51.158Z,34.61
2023-02-12T15:16:35.990Z,35.74
2023-02-12T15:19:21.009Z,37.06
2023-02-12T15:22:05.924Z,37.45
2023-02-12T15:24:50.924Z,38.87
2023-02-12T15:27:35.762Z,41.48
2023-02-12T15:30:26.399Z,40.65
2023-02-12T15:33:13.628Z,41.18
2023-02-12T15:35:59.844Z,41.18
2023-02-12T15:38:44.908Z,40.44
2023-02-12T15:41:29.934Z,41.10
2023-02-12T15:44:15.196Z,41.81
2023-02-12T15:47:00.168Z,42.15
2023-02-12T15:49:44.902Z,42.45
2023-02-12T15:52:29.837Z,43.00
2023-02-12T15:55:14.714Z,42.91
2023-02-12T15:57:59.660Z,43.96
2023-02-12T16:00:44.570Z,43.52
2023-02-12T16:03:29.350Z,44.92
2023-02-12T16:06:14.354Z,45.44
2023-02-12T16:08:59.169Z,47.35
2023-02-12T16:11:44.038Z,47.60
2023-02-12T16:14:28.816Z,47.18
2023-02-12T16:17:13.655Z,47.59
2023-02-12T16:19:58.566Z,47.10
2023-02-12T16:22:43.491Z,47.03
2023-02-12T16:25:28.393Z,47.22
2023-02-12T16:28:13.285Z,47.54
2023-02-12T16:30:58.323Z,48.89
2023-02-12T16:33:43.008Z,48.55
2023-02-12T16:36:27.916Z,49.13
2023-02-12T16:39:12.529Z,49.32
2023-02-12T16:41:57.474Z,47.50
2023-02-12T16:44:42.332Z,49.21
2023-02-12T16:47:27.270Z,49.89
2023-02-12T16:50:12.300Z,51.27
2023-02-12T16:52:57.162Z,51.62
2023-02-12T16:55:42.136Z,52.02
2023-02-12T16:58:26.952Z,52.19
2023-02-12T17:01:11.917Z,53.08
2023-02-12T17:03:56.650Z,53.30
2023-02-12T17:06:41.618Z,53.90
2023-02-12T17:09:26.606Z,53.63
2023-02-12T17:12:11.530Z,54.82
2023-02-12T17:14:56.460Z,55.10
2023-02-12T17:17:41.246Z,55.42
2023-02-12T17:20:26.167Z,56.46
2023-02-12T17:23:11.059Z,56.21
2023-02-12T17:25:56.172Z,56.60
2023-02-12T17:28:41.181Z,56.93
2023-02-12T17:31:26.335Z,57.71
2023-02-12T17:34:11.156Z,57.89
2023-02-12T17:36:55.986Z,58.00
2023-02-12T17:39:41.076Z,58.49
2023-02-12T17:42:25.921Z,57.97
2023-02-12T17:45:10.872Z,57.83
2023-02-12T17:47:55.685Z,58.73
2023-02-12T17:50:40.584Z,58.35
2023-02-12T17:53:25.504Z,57.13
2023-02-12T17:56:10.607Z,58.12
2023-02-12T17:58:55.517Z,58.64
2023-02-12T18:01:40.485Z,58.11
2023-02-12T18:04:25.434Z,58.68
2023-02-12T18:07:10.247Z,57.98
2023-02-12T18:09:55.289Z,58.72
2023-02-12T18:12:40.381Z,57.79
2023-02-12T18:15:25.221Z,58.12
2023-02-12T18:18:09.931Z,57.80
2023-02-12T18:20:55.517Z,55.70
2023-02-12T18:23:41.020Z,56.31
2023-02-12T18:26:25.949Z,55.45
2023-02-12T18:29:10.865Z,55.68
2023-02-12T18:31:55.823Z,57.08
2023-02-12T18:34:40.761Z,56.98
2023-02-12T18:37:25.658Z,57.62
2023-02-12T18:40:10.605Z,56.76
2023-02-12T18:42:55.385Z,57.08
2023-02-12T18:45:40.337Z,57.69
2023-02-12T18:48:25.210Z,57.37
2023-02-12T18:51:10.085Z,56.87
2023-02-12T18:53:54.975Z,57.39
2023-02-12T18:56:39.742Z,57.62
2023-02-12T18:59:27.110Z,57.22
2023-02-12T19:02:12.170Z,58.78
2023-02-12T19:04:57.136Z,58.68
2023-02-12T19:07:41.971Z,58.12
2023-02-12T19:10:26.713Z,59.94
2023-02-12T19:13:11.740Z,60.29
2023-02-12T19:15:56.630Z,59.94
2023-02-12T19:18:41.447Z,60.66
2023-02-12T19:21:26.502Z,59.46
2023-02-12T19:24:11.737Z,60.48
2023-02-12T19:26:56.654Z,60.65
2023-02-12T19:29:41.549Z,59.93
2023-02-12T19:32:26.457Z,60.08
2023-02-12T19:35:11.266Z,59.55
2023-02-12T19:37:56.202Z,58.67
2023-02-12T19:40:41.048Z,58.93
2023-02-12T19:43:26.044Z,59.40
2023-02-12T19:46:10.861Z,57.47
2023-02-12T19:48:55.829Z,57.50
2023-02-12T19:51:40.833Z,57.33
2023-02-12T19:54:25.590Z,57.57
2023-02-12T19:57:12.571Z,58.16
2023-02-12T19:59:58.457Z,57.63
2023-02-12T20:02:44.036Z,57.69
2023-02-12T20:05:29.310Z,59.01
2023-02-12T20:08:14.232Z,57.82
2023-02-12T20:10:59.165Z,58.00
2023-02-12T20:13:43.934Z,57.52
2023-02-12T20:16:28.790Z,56.91
2023-02-12T20:19:13.454Z,57.25
2023-02-12T20:21:58.372Z,56.93
2023-02-12T20:24:43.191Z,57.99
2023-02-12T20:27:28.192Z,58.12
2023-02-12T20:30:13.056Z,57.42
2023-02-12T20:32:57.989Z,57.16
2023-02-12T20:35:42.910Z,55.82
2023-02-12T20:38:27.830Z,57.27
2023-02-12T20:41:12.652Z,57.10
2023-02-12T20:43:57.468Z,57.22
2023-02-12T20:46:42.417Z,56.53
2023-02-12T20:49:27.258Z,56.89
2023-02-12T20:52:12.087Z,56.67
2023-02-12T20:54:56.945Z,56.57
2023-02-12T20:57:41.754Z,55.97
2023-02-12T21:00:26.742Z,56.57
2023-02-12T21:03:11.666Z,57.11
2023-02-12T21:05:56.850Z,56.40
2023-02-12T21:08:41.999Z,56.12
2023-02-12T21:11:26.804Z,55.11
2023-02-12T21:14:21.942Z,56.41
2023-02-12T21:17:07.674Z,57.09
2023-02-12T21:19:52.486Z,56.50
2023-02-12T21:22:37.321Z,55.92
2023-02-12T21:25:22.181Z,57.23
2023-02-12T21:28:07.265Z,58.35
2023-02-12T21:30:52.039Z,56.76
2023-02-12T21:33:36.973Z,57.23
2023-02-12T21:36:22.081Z,57.81
2023-02-12T21:39:06.895Z,59.10
2023-02-12T21:41:51.871Z,57.75
2023-02-12T21:44:36.804Z,58.70
2023-02-12T21:47:21.671Z,58.74
2023-02-12T21:50:06.470Z,59.24
2023-02-12T21:52:51.372Z,58.24
2023-02-12T21:55:36.349Z,57.26
2023-02-12T21:58:21.326Z,57.63
2023-02-12T22:01:06.347Z,56.67
2023-02-12T22:03:51.100Z,57.22
2023-02-12T22:06:35.966Z,57.85
2023-02-12T22:09:20.809Z,57.11
2023-02-12T22:12:05.854Z,57.63
2023-02-12T22:14:50.578Z,56.68
2023-02-12T22:17:35.541Z,56.83
2023-02-12T22:20:20.398Z,57.63
2023-02-12T22:23:05.297Z,56.89
2023-02-12T22:25:50.268Z,57.74
2023-02-12T22:28:35.132Z,57.17
2023-02-12T22:31:20.071Z,56.97
2023-02-12T22:34:05.053Z,57.87
2023-02-12T22:36:49.886Z,58.45
2023-02-12T22:39:34.705Z,58.84
2023-02-12T22:42:19.826Z,59.35
2023-02-12T22:45:04.616Z,59.01
2023-02-12T22:47:49.461Z,59.12
2023-02-12T22:50:34.691Z,60.46
2023-02-12T22:53:20.597Z,58.61
2023-02-12T22:56:05.512Z,59.04
2023-02-12T22:58:50.491Z,60.18
2023-02-12T23:01:35.479Z,59.78
2023-02-12T23:04:20.424Z,59.05
2023-02-12T23:07:05.751Z,58.82
2023-02-12T23:09:50.699Z,58.43
2023-02-12T23:12:35.583Z,58.73
2023-02-12T23:15:20.536Z,59.43
2023-02-12T23:18:05.381Z,58.05
2023-02-12T23:20:50.373Z,58.96
2023-02-12T23:23:35.158Z,58.99
2023-02-12T23:26:20.076Z,59.60
2023-02-12T23:29:04.866Z,59.36
2023-02-12T23:31:49.969Z,58.62
2023-02-12T23:34:34.860Z,59.97
2023-02-12T23:37:19.686Z,58.76
2023-02-12T23:40:04.701Z,58.87
2023-02-12T23:42:49.504Z,60.10
2023-02-12T23:45:34.373Z,59.27
2023-02-12T23:48:19.153Z,59.94
2023-02-12T23:51:03.988Z,59.06
2023-02-12T23:53:48.683Z,59.25
2023-02-12T23:56:33.569Z,61.14
2023-02-12T23:59:18.457Z,60.61
